createdAt,value
2016-12-11T00:00:31.820Z,0
2016-12-11T00:01:40.510Z,0
2016-12-11T00:02:49.203Z,0
2016-12-11T00:03:57.885Z,0
2016-12-11T00:05:06.582Z,0
2016-12-11T00:06:15.270Z,0
2016-12-11T00:07:23.959Z,0
2016-12-11T00:08:32.657Z,0
2016-12-11T00:09:41.667Z,0
2016-12-11T00:10:50.355Z,0
2016-12-11T00:11:59.040Z,0
2016-12-11T00:13:07.733Z,0
2016-12-11T00:14:16.429Z,0
2016-12-11T00:15:25.122Z,0
2016-12-11T00:16:33.813Z,0
2016-12-11T00:17:42.504Z,0
2016-12-11T00:18:51.201Z,0
2016-12-11T00:19:59.891Z,0
2016-12-11T00:21:08.585Z,0
2016-12-11T00:22:17.281Z,0
2016-12-11T00:23:25.974Z,0
2016-12-11T00:24:34.659Z,0
2016-12-11T00:25:43.353Z,0
2016-12-11T00:26:52.045Z,0
2016-12-11T00:28:00.734Z,0
2016-12-11T00:29:09.425Z,0
2016-12-11T00:30:18.117Z,0
2016-12-11T00:31:26.803Z,0
2016-12-11T00:32:35.493Z,0
2016-12-11T00:33:44.191Z,0
2016-12-11T00:34:52.889Z,0
2016-12-11T00:36:01.581Z,0
2016-12-11T00:37:10.585Z,0
2016-12-11T00:38:19.277Z,0
2016-12-11T00:39:27.969Z,0
2016-12-11T00:40:36.973Z,0
2016-12-11T00:41:45.688Z,0
2016-12-11T00:42:54.376Z,0
2016-12-11T00:44:03.058Z,0
2016-12-11T00:45:11.749Z,0
2016-12-11T00:46:20.439Z,0
2016-12-11T00:47:29.129Z,0
2016-12-11T00:48:37.815Z,0
2016-12-11T00:49:46.503Z,0
2016-12-11T00:50:55.197Z,0
2016-12-11T00:52:03.883Z,0
2016-12-11T00:53:12.570Z,0
2016-12-11T00:54:21.258Z,0
2016-12-11T00:55:29.954Z,0
2016-12-11T00:56:38.648Z,0
2016-12-11T00:57:47.340Z,0
2016-12-11T00:58:56.027Z,0
2016-12-11T01:00:04.753Z,0
2016-12-11T01:01:13.441Z,0
2016-12-11T01:02:22.136Z,0
2016-12-11T01:03:30.832Z,0
2016-12-11T01:04:39.523Z,0
2016-12-11T01:05:48.217Z,0
2016-12-11T01:06:56.910Z,0
2016-12-11T01:08:05.597Z,0
2016-12-11T01:09:14.283Z,0
2016-12-11T01:10:22.975Z,0
2016-12-11T01:11:31.659Z,0
2016-12-11T01:12:40.347Z,0
2016-12-11T01:13:54.199Z,0
2016-12-11T01:15:02.890Z,0
2016-12-11T01:16:11.582Z,0
2016-12-11T01:17:20.270Z,0
2016-12-11T01:18:28.964Z,0
2016-12-11T01:19:37.755Z,0
2016-12-11T01:20:46.443Z,0
2016-12-11T01:21:55.135Z,0
2016-12-11T01:23:03.833Z,0
2016-12-11T01:24:12.524Z,0
2016-12-11T01:25:21.298Z,0
2016-12-11T01:26:30.348Z,0
2016-12-11T01:27:39.065Z,0
2016-12-11T01:28:47.760Z,0
2016-12-11T01:29:56.449Z,0
2016-12-11T01:31:05.198Z,0
2016-12-11T01:32:13.930Z,0
2016-12-11T01:33:22.619Z,0
2016-12-11T01:34:31.628Z,0
2016-12-11T01:35:40.317Z,0
2016-12-11T01:36:49.084Z,0
2016-12-11T01:37:57.780Z,0
2016-12-11T01:39:06.469Z,0
2016-12-11T01:40:15.158Z,0
2016-12-11T01:41:23.884Z,0
2016-12-11T01:42:32.628Z,0
2016-12-11T01:43:41.317Z,0
2016-12-11T01:44:50.005Z,0
2016-12-11T01:45:58.694Z,0
2016-12-11T01:47:07.380Z,0
2016-12-11T01:48:16.174Z,0
2016-12-11T01:49:24.865Z,0
2016-12-11T01:50:33.890Z,0
2016-12-11T01:51:42.574Z,0
2016-12-11T01:52:51.263Z,0
2016-12-11T01:54:00.011Z,0
2016-12-11T01:55:08.708Z,0
2016-12-11T01:56:17.391Z,0
2016-12-11T01:57:26.085Z,0
2016-12-11T01:58:34.776Z,0
2016-12-11T01:59:43.510Z,0
2016-12-11T02:00:52.201Z,0
2016-12-11T02:02:00.916Z,0
2016-12-11T02:03:09.631Z,0
2016-12-11T02:04:18.321Z,0
2016-12-11T02:05:27.064Z,0
2016-12-11T02:06:35.758Z,0
2016-12-11T02:07:44.472Z,0
2016-12-11T02:08:53.157Z,0
2016-12-11T02:10:01.849Z,0
2016-12-11T02:11:10.594Z,0
2016-12-11T02:12:19.285Z,0
2016-12-11T02:13:27.978Z,0
2016-12-11T02:14:36.668Z,0
2016-12-11T02:15:45.354Z,0
2016-12-11T02:16:54.087Z,0
2016-12-11T02:18:02.779Z,0
2016-12-11T02:19:11.470Z,0
2016-12-11T02:20:20.161Z,0
2016-12-11T02:21:28.859Z,0
2016-12-11T02:22:37.597Z,0
2016-12-11T02:23:46.284Z,0
2016-12-11T02:24:54.970Z,0
2016-12-11T02:26:03.670Z,0
2016-12-11T02:27:12.363Z,0
2016-12-11T02:28:21.105Z,0
2016-12-11T02:29:29.791Z,0
2016-12-11T02:30:38.483Z,0
2016-12-11T02:31:47.167Z,0
2016-12-11T02:32:55.855Z,0
2016-12-11T02:34:04.912Z,0
2016-12-11T02:35:13.602Z,0
2016-12-11T02:36:22.320Z,0
2016-12-11T02:37:31.013Z,0
2016-12-11T02:38:39.712Z,0
2016-12-11T02:39:48.448Z,0
2016-12-11T02:40:57.134Z,0
2016-12-11T02:42:05.826Z,0
2016-12-11T02:43:14.520Z,0
2016-12-11T02:44:23.208Z,0
2016-12-11T02:45:31.946Z,0
2016-12-11T02:46:40.633Z,0
2016-12-11T02:47:49.325Z,0
2016-12-11T02:48:58.016Z,0
2016-12-11T02:50:07.023Z,0
2016-12-11T02:51:15.765Z,0
2016-12-11T02:52:24.452Z,0
2016-12-11T02:53:33.144Z,0
2016-12-11T02:54:41.830Z,0
2016-12-11T02:55:50.522Z,0
2016-12-11T02:56:59.268Z,0
2016-12-11T02:58:07.958Z,0
2016-12-11T02:59:16.650Z,0
2016-12-11T03:00:25.338Z,0
2016-12-11T03:01:34.035Z,0
2016-12-11T03:04:14.892Z,0
2016-12-11T03:05:23.583Z,0
2016-12-11T03:06:32.277Z,0
2016-12-11T03:07:40.970Z,0
2016-12-11T03:08:50.022Z,0
2016-12-11T03:09:58.710Z,0
2016-12-11T03:11:07.402Z,0
2016-12-11T03:12:16.121Z,0
2016-12-11T03:13:24.813Z,0
2016-12-11T03:14:33.503Z,0
2016-12-11T03:15:42.186Z,0
2016-12-11T03:16:50.876Z,0
2016-12-11T03:17:59.568Z,0
2016-12-11T03:19:08.253Z,0
2016-12-11T03:20:17.003Z,0
2016-12-11T03:21:25.694Z,0
2016-12-11T03:22:34.380Z,0
2016-12-11T03:23:43.103Z,0
2016-12-11T03:24:51.790Z,0
2016-12-11T03:26:00.476Z,0
2016-12-11T03:27:09.163Z,0
2016-12-11T03:28:17.856Z,0
2016-12-11T03:29:26.571Z,0
2016-12-11T03:30:35.263Z,0
2016-12-11T03:31:43.950Z,0
2016-12-11T03:32:52.643Z,0
2016-12-11T03:34:01.654Z,0
2016-12-11T03:35:10.345Z,0
2016-12-11T03:36:19.036Z,0
2016-12-11T03:37:27.731Z,0
2016-12-11T03:38:36.417Z,0
2016-12-11T03:39:45.106Z,0
2016-12-11T03:40:53.797Z,0
2016-12-11T03:42:02.488Z,0
2016-12-11T03:43:11.172Z,0
2016-12-11T03:44:19.857Z,0
2016-12-11T03:45:28.539Z,0
2016-12-11T03:46:37.230Z,0
2016-12-11T03:47:45.922Z,0
2016-12-11T03:48:54.608Z,0
2016-12-11T03:50:03.299Z,0
2016-12-11T03:51:12.302Z,0
2016-12-11T03:52:20.994Z,0
2016-12-11T03:53:29.682Z,0
2016-12-11T03:54:38.372Z,0
2016-12-11T03:55:47.053Z,0
2016-12-11T03:56:55.742Z,0
2016-12-11T03:58:04.425Z,0
2016-12-11T03:59:13.116Z,0
2016-12-11T04:00:22.118Z,0
2016-12-11T04:01:30.807Z,0
2016-12-11T04:02:39.810Z,0
2016-12-11T04:03:48.497Z,0
2016-12-11T04:04:57.183Z,0
2016-12-11T04:06:05.869Z,0
2016-12-11T04:07:14.555Z,0
2016-12-11T04:08:23.246Z,0
2016-12-11T04:09:31.932Z,0
2016-12-11T04:10:40.622Z,0
2016-12-11T04:11:49.351Z,0
2016-12-11T04:12:58.033Z,0
2016-12-11T04:14:06.724Z,0
2016-12-11T04:15:15.417Z,0
2016-12-11T04:16:24.109Z,0
2016-12-11T04:17:32.795Z,0
2016-12-11T04:18:41.480Z,0
2016-12-11T04:19:50.180Z,0
2016-12-11T04:20:58.866Z,0
2016-12-11T04:22:07.558Z,0
2016-12-11T04:23:16.244Z,0
2016-12-11T04:24:24.934Z,0
2016-12-11T04:25:33.942Z,0
2016-12-11T04:26:42.629Z,0
2016-12-11T04:27:51.320Z,0
2016-12-11T04:29:00.010Z,0
2016-12-11T04:30:08.704Z,0
2016-12-11T04:31:17.391Z,0
2016-12-11T04:32:26.158Z,0
2016-12-11T04:33:34.841Z,0
2016-12-11T04:34:43.845Z,0
2016-12-11T04:35:52.535Z,0
2016-12-11T04:37:01.222Z,0
2016-12-11T04:38:09.915Z,0
2016-12-11T04:39:18.602Z,0
2016-12-11T04:40:27.286Z,0
2016-12-11T04:41:35.975Z,0
2016-12-11T04:42:44.662Z,0
2016-12-11T04:43:53.348Z,0
2016-12-11T04:45:02.036Z,0
2016-12-11T04:46:10.725Z,0
2016-12-11T04:47:19.415Z,0
2016-12-11T04:48:28.105Z,0
2016-12-11T04:49:36.798Z,0
2016-12-11T04:50:45.487Z,0
2016-12-11T04:51:54.178Z,0
2016-12-11T04:53:02.865Z,0
2016-12-11T04:54:11.548Z,0
2016-12-11T04:55:20.255Z,0
2016-12-11T04:56:28.945Z,0
2016-12-11T04:57:37.635Z,0
2016-12-11T04:58:46.320Z,0
2016-12-11T04:59:55.006Z,0
2016-12-11T05:01:03.695Z,0
2016-12-11T05:02:12.382Z,0
2016-12-11T05:03:21.070Z,0
2016-12-11T05:04:29.762Z,0
2016-12-11T05:05:38.453Z,0
2016-12-11T05:06:47.151Z,0
2016-12-11T05:07:55.846Z,0
2016-12-11T05:09:04.535Z,0
2016-12-11T05:10:13.537Z,0
2016-12-11T05:11:22.248Z,0
2016-12-11T05:12:30.940Z,0
2016-12-11T05:13:39.625Z,0
2016-12-11T05:14:48.315Z,0
2016-12-11T05:15:56.999Z,0
2016-12-11T05:17:05.691Z,0
2016-12-11T05:18:14.409Z,0
2016-12-11T05:19:23.102Z,0
2016-12-11T05:20:31.790Z,0
2016-12-11T05:21:40.475Z,0
2016-12-11T05:22:49.164Z,0
2016-12-11T05:23:57.853Z,0
2016-12-11T05:25:06.542Z,0
2016-12-11T05:26:15.230Z,0
2016-12-11T05:27:23.921Z,0
2016-12-11T05:28:32.612Z,0
2016-12-11T05:29:41.331Z,0
2016-12-11T05:30:50.018Z,0
2016-12-11T05:31:58.706Z,0
2016-12-11T05:33:07.399Z,0
2016-12-11T05:34:16.097Z,0
2016-12-11T05:35:24.786Z,0
2016-12-11T05:36:33.479Z,0
2016-12-11T05:37:42.169Z,0
2016-12-11T05:38:50.853Z,0
2016-12-11T05:39:59.550Z,0
2016-12-11T05:41:08.244Z,0
2016-12-11T05:42:16.933Z,0
2016-12-11T05:43:25.621Z,0
2016-12-11T05:44:34.308Z,0
2016-12-11T05:45:42.993Z,0
2016-12-11T05:46:51.682Z,0
2016-12-11T05:48:00.370Z,0
2016-12-11T05:49:09.056Z,0
2016-12-11T05:50:17.742Z,0
2016-12-11T05:51:26.425Z,0
2016-12-11T05:52:35.116Z,0
2016-12-11T05:53:43.802Z,0
2016-12-11T05:54:52.494Z,0
2016-12-11T05:56:01.194Z,0
2016-12-11T05:57:09.886Z,0
2016-12-11T05:58:18.572Z,0
2016-12-11T05:59:27.260Z,0
2016-12-11T06:00:35.951Z,0
2016-12-11T06:01:44.638Z,0
2016-12-11T06:02:53.322Z,0
2016-12-11T06:04:02.007Z,0
2016-12-11T06:05:11.013Z,0
2016-12-11T06:06:19.699Z,0
2016-12-11T06:07:28.388Z,0
2016-12-11T06:08:37.079Z,0
2016-12-11T06:09:45.761Z,0
2016-12-11T06:10:54.453Z,0
2016-12-11T06:12:03.147Z,0
2016-12-11T06:13:12.180Z,0
2016-12-11T06:14:20.871Z,0
2016-12-11T06:15:29.562Z,0
2016-12-11T06:16:38.285Z,0
2016-12-11T06:17:46.973Z,0
2016-12-11T06:18:55.660Z,0
2016-12-11T06:20:04.348Z,0
2016-12-11T06:21:13.067Z,0
2016-12-11T06:22:21.759Z,0
2016-12-11T06:23:30.448Z,0
2016-12-11T06:24:39.143Z,0
2016-12-11T06:25:47.827Z,0
2016-12-11T06:26:56.521Z,0
2016-12-11T06:28:05.217Z,0
2016-12-11T06:29:13.915Z,0
2016-12-11T06:30:22.604Z,0
2016-12-11T06:31:31.298Z,0
2016-12-11T06:32:39.988Z,0
2016-12-11T06:33:48.680Z,0
2016-12-11T06:34:57.370Z,0
2016-12-11T06:36:06.062Z,0
2016-12-11T06:37:14.749Z,0
2016-12-11T06:38:23.440Z,0
2016-12-11T06:39:32.167Z,0
2016-12-11T06:40:40.851Z,0
2016-12-11T06:41:49.563Z,0
2016-12-11T06:42:58.250Z,0
2016-12-11T06:44:06.941Z,0
2016-12-11T06:45:15.635Z,0
2016-12-11T06:46:24.320Z,0
2016-12-11T06:47:33.013Z,0
2016-12-11T06:48:41.703Z,0
2016-12-11T06:49:50.392Z,0
2016-12-11T06:50:59.118Z,0
2016-12-11T06:52:07.807Z,0
2016-12-11T06:53:16.494Z,0
2016-12-11T06:54:25.189Z,0
2016-12-11T06:55:33.884Z,0
2016-12-11T06:56:42.572Z,0
2016-12-11T06:57:51.328Z,0
2016-12-11T06:59:00.018Z,0
2016-12-11T07:00:08.710Z,0
2016-12-11T07:01:17.410Z,0
2016-12-11T07:02:26.106Z,0
2016-12-11T07:03:34.797Z,0
2016-12-11T07:04:43.490Z,0
2016-12-11T07:05:52.178Z,0
2016-12-11T07:07:00.869Z,0
2016-12-11T07:08:09.562Z,0
2016-12-11T07:09:18.246Z,0
2016-12-11T07:10:26.935Z,0
2016-12-11T07:11:35.623Z,0
2016-12-11T07:12:44.312Z,0
2016-12-11T07:13:53.000Z,0
2016-12-11T07:15:01.690Z,0
2016-12-11T07:16:10.384Z,0
2016-12-11T07:17:19.102Z,0
2016-12-11T07:18:27.818Z,0
2016-12-11T07:19:36.512Z,0
2016-12-11T07:20:45.203Z,0
2016-12-11T07:21:53.894Z,0
2016-12-11T07:23:02.585Z,0
2016-12-11T07:24:11.274Z,0
2016-12-11T07:25:19.964Z,0
2016-12-11T07:26:28.654Z,0
2016-12-11T07:27:37.355Z,0
2016-12-11T07:28:46.046Z,0
2016-12-11T07:29:54.730Z,0
2016-12-11T07:31:03.422Z,0
2016-12-11T07:32:12.115Z,0
2016-12-11T07:33:20.803Z,0
2016-12-11T07:34:29.490Z,0
2016-12-11T07:35:38.184Z,0
2016-12-11T07:36:46.876Z,0
2016-12-11T07:37:55.557Z,0
2016-12-11T07:39:04.255Z,0
2016-12-11T07:40:12.950Z,0
2016-12-11T07:41:21.648Z,0
2016-12-11T07:42:30.334Z,0
2016-12-11T07:43:39.056Z,0
2016-12-11T07:44:47.747Z,0
2016-12-11T07:45:56.437Z,0
2016-12-11T07:47:05.160Z,0
2016-12-11T07:48:13.846Z,0
2016-12-11T07:49:22.536Z,0
2016-12-11T07:50:31.226Z,0
2016-12-11T07:51:39.914Z,0
2016-12-11T07:52:48.596Z,0
2016-12-11T07:53:57.289Z,0
2016-12-11T07:55:05.977Z,0
2016-12-11T07:56:14.672Z,0
2016-12-11T07:57:23.364Z,0
2016-12-11T07:58:32.052Z,0
2016-12-11T07:59:40.740Z,0
2016-12-11T08:00:49.431Z,0
2016-12-11T08:01:58.125Z,0
2016-12-11T08:03:06.810Z,0
2016-12-11T08:04:15.813Z,0
2016-12-11T08:05:24.501Z,0
2016-12-11T08:06:33.190Z,0
2016-12-11T08:07:41.878Z,0
2016-12-11T08:08:50.566Z,0
2016-12-11T08:09:59.261Z,0
2016-12-11T08:11:08.263Z,0
2016-12-11T08:12:16.955Z,0
2016-12-11T08:13:25.649Z,0
2016-12-11T08:14:34.342Z,0
2016-12-11T08:15:43.033Z,0
2016-12-11T08:16:51.723Z,0
2016-12-11T08:18:00.412Z,0
2016-12-11T08:19:09.106Z,0
2016-12-11T08:20:17.803Z,0
2016-12-11T08:21:26.494Z,0
2016-12-11T08:22:35.183Z,0
2016-12-11T08:23:43.873Z,0
2016-12-11T08:24:52.562Z,0
2016-12-11T08:26:01.253Z,5
2016-12-11T08:27:09.974Z,5
2016-12-11T08:28:18.663Z,5
2016-12-11T08:29:27.378Z,5
2016-12-11T08:30:36.068Z,5
2016-12-11T08:31:44.752Z,5
2016-12-11T08:32:53.446Z,5
2016-12-11T08:34:02.138Z,5
2016-12-11T08:35:10.828Z,5
2016-12-11T08:36:19.525Z,5
2016-12-11T08:37:28.215Z,5
2016-12-11T08:38:36.900Z,10
2016-12-11T08:39:45.594Z,10
2016-12-11T08:40:54.282Z,10
2016-12-11T08:42:02.972Z,10
2016-12-11T08:43:11.659Z,10
2016-12-11T08:44:20.357Z,10
2016-12-11T08:45:29.048Z,10
2016-12-11T08:46:37.733Z,10
2016-12-11T08:47:46.450Z,10
2016-12-11T08:48:55.139Z,10
2016-12-11T08:50:03.828Z,10
2016-12-11T08:51:12.519Z,15
2016-12-11T08:52:21.207Z,15
2016-12-11T08:53:29.899Z,15
2016-12-11T08:54:38.592Z,15
2016-12-11T08:55:47.281Z,15
2016-12-11T08:56:55.971Z,15
2016-12-11T08:58:04.658Z,15
2016-12-11T08:59:13.344Z,20
2016-12-11T09:00:22.045Z,20
2016-12-11T09:01:30.732Z,20
2016-12-11T09:02:39.419Z,20
2016-12-11T09:03:48.109Z,20
2016-12-11T09:04:56.797Z,20
2016-12-11T09:06:05.485Z,20
2016-12-11T09:07:14.172Z,25
2016-12-11T09:08:22.871Z,25
2016-12-11T09:09:31.557Z,25
2016-12-11T09:10:40.245Z,30
2016-12-11T09:11:48.938Z,30
2016-12-11T09:12:57.630Z,30
2016-12-11T09:14:06.316Z,30
2016-12-11T09:15:15.018Z,35
2016-12-11T09:16:23.708Z,35
2016-12-11T09:17:32.395Z,35
2016-12-11T09:18:41.085Z,40
2016-12-11T09:19:49.778Z,40
2016-12-11T09:20:58.474Z,40
2016-12-11T09:22:07.166Z,40
2016-12-11T09:23:15.851Z,40
2016-12-11T09:24:24.542Z,45
2016-12-11T09:25:33.227Z,45
2016-12-11T09:26:41.916Z,45
2016-12-11T09:27:50.606Z,50
2016-12-11T09:28:59.304Z,45
2016-12-11T09:30:07.993Z,50
2016-12-11T09:31:16.686Z,50
2016-12-11T09:32:25.380Z,45
2016-12-11T09:33:34.067Z,50
2016-12-11T09:34:42.758Z,50
2016-12-11T09:35:51.447Z,50
2016-12-11T09:37:00.172Z,55
2016-12-11T09:38:08.868Z,55
2016-12-11T09:39:17.553Z,55
2016-12-11T09:40:26.244Z,55
2016-12-11T09:41:34.945Z,55
2016-12-11T09:42:43.951Z,60
2016-12-11T09:43:52.646Z,60
2016-12-11T09:45:01.342Z,60
2016-12-11T09:46:10.037Z,60
2016-12-11T09:47:18.725Z,55
2016-12-11T09:48:27.416Z,55
2016-12-11T09:49:36.106Z,55
2016-12-11T09:50:44.792Z,60
2016-12-11T09:51:53.479Z,55
2016-12-11T09:53:02.169Z,60
2016-12-11T09:54:10.856Z,60
2016-12-11T09:55:19.542Z,60
2016-12-11T09:56:28.236Z,60
2016-12-11T09:57:36.924Z,60
2016-12-11T09:58:45.617Z,60
2016-12-11T09:59:54.305Z,60
2016-12-11T10:01:02.990Z,60
2016-12-11T10:02:11.681Z,60
2016-12-11T10:03:20.369Z,60
2016-12-11T10:04:29.088Z,60
2016-12-11T10:05:37.781Z,60
2016-12-11T10:06:46.468Z,60
2016-12-11T10:07:55.478Z,60
2016-12-11T10:09:04.169Z,60
2016-12-11T10:10:12.860Z,65
2016-12-11T10:11:21.571Z,65
2016-12-11T10:12:30.258Z,65
2016-12-11T10:13:38.947Z,65
2016-12-11T10:14:47.663Z,65
2016-12-11T10:15:56.353Z,65
2016-12-11T10:17:05.042Z,65
2016-12-11T10:18:13.730Z,70
2016-12-11T10:19:22.428Z,70
2016-12-11T10:20:31.118Z,70
2016-12-11T10:21:39.805Z,75
2016-12-11T10:22:48.527Z,70
2016-12-11T10:23:57.228Z,70
2016-12-11T10:25:05.965Z,75
2016-12-11T10:26:14.654Z,75
2016-12-11T10:27:23.365Z,75
2016-12-11T10:28:32.050Z,80
2016-12-11T10:29:40.739Z,75
2016-12-11T10:30:49.432Z,80
2016-12-11T10:31:58.125Z,80
2016-12-11T10:33:06.815Z,75
2016-12-11T10:34:15.507Z,70
2016-12-11T10:35:24.194Z,75
2016-12-11T10:36:32.909Z,80
2016-12-11T10:37:41.597Z,75
2016-12-11T10:38:50.290Z,85
2016-12-11T10:39:58.981Z,80
2016-12-11T10:41:07.675Z,85
2016-12-11T10:42:16.385Z,80
2016-12-11T10:43:25.079Z,80
2016-12-11T10:44:33.767Z,90
2016-12-11T10:45:42.457Z,85
2016-12-11T10:46:51.144Z,95
2016-12-11T10:47:59.830Z,105
2016-12-11T10:49:08.522Z,105
2016-12-11T10:50:17.210Z,110
2016-12-11T10:51:25.894Z,105
2016-12-11T10:52:34.916Z,105
2016-12-11T10:53:43.610Z,105
2016-12-11T10:54:52.304Z,100
2016-12-11T10:56:00.995Z,105
2016-12-11T10:57:09.688Z,100
2016-12-11T10:58:18.377Z,100
2016-12-11T10:59:27.065Z,105
2016-12-11T11:00:35.783Z,95
2016-12-11T11:01:44.470Z,100
2016-12-11T11:02:53.159Z,95
2016-12-11T11:04:01.849Z,95
2016-12-11T11:05:10.542Z,95
2016-12-11T11:06:19.236Z,95
2016-12-11T11:07:27.926Z,85
2016-12-11T11:08:36.619Z,85
2016-12-11T11:09:45.309Z,80
2016-12-11T11:10:53.995Z,75
2016-12-11T11:12:02.730Z,75
2016-12-11T11:13:11.418Z,75
2016-12-11T11:14:20.110Z,70
2016-12-11T11:15:28.800Z,65
2016-12-11T11:16:37.485Z,65
2016-12-11T11:17:46.181Z,65
2016-12-11T11:18:54.866Z,60
2016-12-11T11:20:03.554Z,60
2016-12-11T11:21:12.244Z,60
2016-12-11T11:22:20.930Z,65
2016-12-11T11:23:29.621Z,65
2016-12-11T11:24:38.307Z,60
2016-12-11T11:25:47.020Z,60
2016-12-11T11:26:55.707Z,60
2016-12-11T11:28:04.398Z,55
2016-12-11T11:29:13.085Z,55
2016-12-11T11:30:21.771Z,60
2016-12-11T11:31:30.456Z,55
2016-12-11T11:32:39.462Z,55
2016-12-11T11:33:48.148Z,60
2016-12-11T11:34:56.835Z,55
2016-12-11T11:36:05.521Z,60
2016-12-11T11:37:14.208Z,60
2016-12-11T11:38:22.892Z,60
2016-12-11T11:39:31.585Z,60
2016-12-11T11:40:40.272Z,50
2016-12-11T11:41:48.959Z,55
2016-12-11T11:42:57.643Z,60
2016-12-11T11:44:06.330Z,55
2016-12-11T11:45:15.024Z,55
2016-12-11T11:46:23.711Z,55
2016-12-11T11:47:32.403Z,50
2016-12-11T11:48:41.102Z,55
2016-12-11T11:49:50.098Z,55
2016-12-11T11:50:58.787Z,55
2016-12-11T11:52:07.791Z,55
2016-12-11T11:53:16.478Z,55
2016-12-11T11:54:25.169Z,60
2016-12-11T11:55:33.906Z,60
2016-12-11T11:56:42.600Z,60
2016-12-11T11:57:51.600Z,60
2016-12-11T11:59:00.295Z,60
2016-12-11T12:00:08.985Z,65
2016-12-11T12:01:17.675Z,70
2016-12-11T12:02:26.358Z,75
2016-12-11T12:03:35.054Z,70
2016-12-11T12:04:43.737Z,75
2016-12-11T12:05:52.427Z,80
2016-12-11T12:07:01.118Z,80
2016-12-11T12:08:09.804Z,80
2016-12-11T12:09:18.524Z,80
2016-12-11T12:10:27.216Z,75
2016-12-11T12:11:35.905Z,80
2016-12-11T12:12:44.595Z,75
2016-12-11T12:13:53.289Z,80
2016-12-11T12:15:01.978Z,80
2016-12-11T12:16:10.666Z,85
2016-12-11T12:17:19.353Z,85
2016-12-11T12:18:28.040Z,90
2016-12-11T12:19:36.733Z,90
2016-12-11T12:20:45.420Z,90
2016-12-11T12:21:54.110Z,95
2016-12-11T12:23:02.798Z,100
2016-12-11T12:24:11.525Z,95
2016-12-11T12:25:20.218Z,95
2016-12-11T12:26:28.907Z,95
2016-12-11T12:27:37.595Z,95
2016-12-11T12:28:46.286Z,90
2016-12-11T12:29:54.976Z,85
2016-12-11T12:31:03.669Z,85
2016-12-11T12:32:12.358Z,80
2016-12-11T12:33:21.054Z,80
2016-12-11T12:34:29.744Z,85
2016-12-11T12:35:38.432Z,80
2016-12-11T12:36:47.120Z,75
2016-12-11T12:37:55.819Z,75
2016-12-11T12:39:04.515Z,75
2016-12-11T12:40:13.236Z,80
2016-12-11T12:41:21.926Z,75
2016-12-11T12:42:30.614Z,70
2016-12-11T12:43:39.301Z,65
2016-12-11T12:44:47.990Z,65
2016-12-11T12:45:56.680Z,60
2016-12-11T12:47:05.368Z,60
2016-12-11T12:48:14.065Z,60
2016-12-11T12:49:22.753Z,60
2016-12-11T12:50:31.473Z,55
2016-12-11T12:51:40.481Z,55
2016-12-11T12:52:49.196Z,50
2016-12-11T12:53:57.883Z,50
2016-12-11T12:55:06.572Z,50
2016-12-11T12:56:15.259Z,45
2016-12-11T12:57:23.941Z,45
2016-12-11T12:58:32.632Z,35
2016-12-11T12:59:41.347Z,35
2016-12-11T13:00:50.037Z,30
2016-12-11T13:01:58.723Z,30
2016-12-11T13:03:07.439Z,30
2016-12-11T13:04:16.124Z,25
2016-12-11T13:05:24.837Z,25
2016-12-11T13:06:33.524Z,25
2016-12-11T13:07:42.206Z,25
2016-12-11T13:08:50.894Z,25
2016-12-11T13:09:59.579Z,20
2016-12-11T13:11:08.270Z,20
2016-12-11T13:12:16.959Z,20
2016-12-11T13:13:25.648Z,20
2016-12-11T13:14:34.335Z,20
2016-12-11T13:15:43.020Z,20
2016-12-11T13:16:52.072Z,20
2016-12-11T13:18:00.760Z,20
2016-12-11T13:19:09.451Z,20
2016-12-11T13:20:18.141Z,20
2016-12-11T13:21:26.827Z,20
2016-12-11T13:22:35.511Z,20
2016-12-11T13:23:44.199Z,20
2016-12-11T13:24:52.886Z,20
2016-12-11T13:26:01.577Z,20
2016-12-11T13:27:10.270Z,20
2016-12-11T13:28:18.955Z,20
2016-12-11T13:29:27.637Z,20
2016-12-11T13:30:36.320Z,20
2016-12-11T13:31:45.027Z,20
2016-12-11T13:32:53.724Z,20
2016-12-11T13:34:02.415Z,20
2016-12-11T13:35:11.113Z,20
2016-12-11T13:36:19.797Z,20
2016-12-11T13:37:28.486Z,20
2016-12-11T13:38:37.176Z,20
2016-12-11T13:39:45.864Z,20
2016-12-11T13:40:54.547Z,20
2016-12-11T13:42:03.239Z,20
2016-12-11T13:43:12.241Z,25
2016-12-11T13:44:20.932Z,20
2016-12-11T13:45:29.630Z,20
2016-12-11T13:46:38.316Z,20
2016-12-11T13:47:47.005Z,20
2016-12-11T13:48:55.687Z,20
2016-12-11T13:50:04.371Z,15
2016-12-11T13:51:13.060Z,15
2016-12-11T13:52:21.747Z,15
2016-12-11T13:53:30.430Z,15
2016-12-11T13:54:39.119Z,15
2016-12-11T13:55:47.810Z,15
2016-12-11T13:56:56.495Z,15
2016-12-11T13:58:05.183Z,15
2016-12-11T13:59:13.867Z,15
2016-12-11T14:00:22.562Z,15
2016-12-11T14:01:31.260Z,10
2016-12-11T14:02:39.952Z,10
2016-12-11T14:03:48.634Z,10
2016-12-11T14:04:57.320Z,10
2016-12-11T14:06:06.014Z,10
2016-12-11T14:07:14.707Z,10
2016-12-11T14:08:23.391Z,10
2016-12-11T14:09:32.083Z,10
2016-12-11T14:10:40.770Z,10
2016-12-11T14:11:49.460Z,5
2016-12-11T14:12:58.157Z,5
2016-12-11T14:14:06.850Z,5
2016-12-11T14:15:15.535Z,5
2016-12-11T14:16:24.221Z,5
2016-12-11T14:17:32.910Z,5
2016-12-11T14:18:41.611Z,5
2016-12-11T14:19:50.296Z,5
2016-12-11T14:20:59.014Z,5
2016-12-11T14:22:07.704Z,5
2016-12-11T14:23:16.392Z,5
2016-12-11T14:24:25.083Z,5
2016-12-11T14:25:33.767Z,0
2016-12-11T14:26:42.449Z,0
2016-12-11T14:27:51.140Z,0
2016-12-11T14:28:59.825Z,0
2016-12-11T14:30:08.521Z,0
2016-12-11T14:31:17.211Z,0
2016-12-11T14:32:25.897Z,0
2016-12-11T14:33:34.584Z,0
2016-12-11T14:34:43.272Z,0
2016-12-11T14:35:51.958Z,0
2016-12-11T14:37:00.644Z,0
2016-12-11T14:38:09.644Z,0
2016-12-11T14:39:18.367Z,0
2016-12-11T14:40:27.055Z,0
2016-12-11T14:41:35.739Z,0
2016-12-11T14:42:44.423Z,0
2016-12-11T14:43:53.114Z,0
2016-12-11T14:45:01.796Z,0
2016-12-11T14:46:10.480Z,0
2016-12-11T14:47:19.189Z,0
2016-12-11T14:48:27.883Z,0
2016-12-11T14:49:36.574Z,0
2016-12-11T14:50:45.261Z,0
2016-12-11T14:51:53.950Z,0
2016-12-11T14:53:17.464Z,0
2016-12-11T14:54:26.153Z,0
2016-12-11T14:55:34.840Z,0
2016-12-11T14:56:43.525Z,0
2016-12-11T14:57:52.211Z,0
2016-12-11T14:59:00.895Z,0
2016-12-11T15:00:09.588Z,0
2016-12-11T15:01:18.274Z,0
2016-12-11T15:02:26.961Z,0
2016-12-11T15:03:35.648Z,0
2016-12-11T15:04:44.336Z,0
2016-12-11T15:05:53.029Z,0
2016-12-11T15:07:01.709Z,0
2016-12-11T15:08:10.392Z,0
2016-12-11T15:09:19.079Z,0
2016-12-11T15:10:27.770Z,0
2016-12-11T15:11:36.464Z,0
2016-12-11T15:12:45.465Z,0
2016-12-11T15:13:54.153Z,0
2016-12-11T15:15:02.838Z,0
2016-12-11T15:16:11.522Z,0
2016-12-11T15:17:20.224Z,0
2016-12-11T15:18:28.914Z,0
2016-12-11T15:19:37.606Z,0
2016-12-11T15:20:46.297Z,0
2016-12-11T15:21:54.979Z,0
2016-12-11T15:23:03.687Z,0
2016-12-11T15:24:12.371Z,0
2016-12-11T15:25:21.055Z,0
2016-12-11T15:26:29.743Z,0
2016-12-11T15:27:38.426Z,0
2016-12-11T15:28:47.116Z,0
2016-12-11T15:29:55.807Z,0
2016-12-11T15:31:04.564Z,0
2016-12-11T15:32:13.253Z,0
2016-12-11T15:33:21.940Z,0
2016-12-11T15:34:30.627Z,0
2016-12-11T15:35:39.311Z,0
2016-12-11T15:36:47.999Z,0
2016-12-11T15:37:56.685Z,0
2016-12-11T15:39:05.726Z,0
2016-12-11T15:40:14.411Z,0
2016-12-11T15:41:23.095Z,0
2016-12-11T15:42:31.787Z,0
2016-12-11T15:43:40.481Z,0
2016-12-11T15:44:49.165Z,0
2016-12-11T15:45:57.858Z,0
2016-12-11T15:47:06.546Z,0
2016-12-11T15:48:15.228Z,0
2016-12-11T15:49:23.911Z,0
2016-12-11T15:50:32.599Z,0
2016-12-11T15:51:41.283Z,0
2016-12-11T15:52:49.971Z,0
2016-12-11T15:53:58.660Z,0
2016-12-11T15:55:07.347Z,0
2016-12-11T15:56:16.034Z,0
2016-12-11T15:57:24.719Z,0
2016-12-11T15:58:33.407Z,0
2016-12-11T15:59:42.091Z,0
2016-12-11T16:00:50.804Z,0
2016-12-11T16:01:59.493Z,0
2016-12-11T16:03:08.208Z,0
2016-12-11T16:04:16.896Z,0
2016-12-11T16:05:25.584Z,0
2016-12-11T16:06:34.304Z,0
2016-12-11T16:07:42.991Z,0
2016-12-11T16:08:51.681Z,0
2016-12-11T16:10:00.363Z,0
2016-12-11T16:11:09.360Z,0
2016-12-11T16:12:18.041Z,0
2016-12-11T16:13:26.724Z,0
2016-12-11T16:14:35.422Z,0
2016-12-11T16:15:44.115Z,0
2016-12-11T16:16:52.803Z,0
2016-12-11T16:18:01.492Z,0
2016-12-11T16:19:10.183Z,0
2016-12-11T16:20:18.867Z,0
2016-12-11T16:21:27.551Z,0
2016-12-11T16:22:36.240Z,0
2016-12-11T16:23:44.927Z,0
2016-12-11T16:24:53.611Z,0
2016-12-11T16:26:02.298Z,0
2016-12-11T16:27:10.988Z,0
2016-12-11T16:28:19.676Z,0
2016-12-11T16:29:28.366Z,0
2016-12-11T16:30:37.057Z,0
2016-12-11T16:31:45.747Z,0
2016-12-11T16:32:54.438Z,0
2016-12-11T16:34:03.445Z,0
2016-12-11T16:35:12.154Z,0
2016-12-11T16:36:20.836Z,0
2016-12-11T16:37:29.526Z,0
2016-12-11T16:38:38.210Z,0
2016-12-11T16:39:46.898Z,0
2016-12-11T16:40:55.589Z,0
2016-12-11T16:42:04.278Z,0
2016-12-11T16:43:12.968Z,0
2016-12-11T16:44:21.654Z,0
2016-12-11T16:45:30.346Z,0